sensor_id;sensor_type;location;lat;lon;timestamp;temperature;humidity
3281;DHT22;1652;51.318;6.202;2023-04-24T00:01:36;10.80;99.90
3281;DHT22;1652;51.318;6.202;2023-04-24T00:04:06;10.70;99.90
3281;DHT22;1652;51.318;6.202;2023-04-24T00:06:37;10.70;99.90
3281;DHT22;1652;51.318;6.202;2023-04-24T00:09:05;10.60;99.90
3281;DHT22;1652;51.318;6.202;2023-04-24T00:11:32;10.60;99.90
3281;DHT22;1652;51.318;6.202;2023-04-24T00:13:59;10.50;99.90
3281;DHT22;1652;51.318;6.202;2023-04-24T00:16:25;10.60;99.90
3281;DHT22;1652;51.318;6.202;2023-04-24T00:18:53;10.50;99.90
3281;DHT22;1652;51.318;6.202;2023-04-24T00:21:20;10.40;99.90
3281;DHT22;1652;51.318;6.202;2023-04-24T00:23:47;10.40;99.90
3281;DHT22;1652;51.318;6.202;2023-04-24T00:26:14;10.30;99.90
3281;DHT22;1652;51.318;6.202;2023-04-24T00:28:41;10.30;99.90
3281;DHT22;1652;51.318;6.202;2023-04-24T00:31:08;10.30;99.90
3281;DHT22;1652;51.318;6.202;2023-04-24T00:33:35;10.30;99.90
3281;DHT22;1652;51.318;6.202;2023-04-24T00:36:02;10.30;99.90
3281;DHT22;1652;51.318;6.202;2023-04-24T00:38:29;10.30;99.90
3281;DHT22;1652;51.318;6.202;2023-04-24T00:40:56;10.30;99.90
3281;DHT22;1652;51.318;6.202;2023-04-24T00:43:23;10.30;99.90
3281;DHT22;1652;51.318;6.202;2023-04-24T00:45:50;10.20;99.90
3281;DHT22;1652;51.318;6.202;2023-04-24T00:48:17;10.20;99.90
3281;DHT22;1652;51.318;6.202;2023-04-24T00:50:45;10.20;99.90
3281;DHT22;1652;51.318;6.202;2023-04-24T00:53:12;10.10;99.90
3281;DHT22;1652;51.318;6.202;2023-04-24T00:55:39;10.10;99.90
3281;DHT22;1652;51.318;6.202;2023-04-24T00:58:06;10.10;99.90
3281;DHT22;1652;51.318;6.202;2023-04-24T01:00:33;10.10;99.90
3281;DHT22;1652;51.318;6.202;2023-04-24T01:03:01;10.10;99.90
3281;DHT22;1652;51.318;6.202;2023-04-24T01:05:31;10.00;99.90
3281;DHT22;1652;51.318;6.202;2023-04-24T01:07:58;10.10;99.90
3281;DHT22;1652;51.318;6.202;2023-04-24T01:10:27;10.10;99.90
3281;DHT22;1652;51.318;6.202;2023-04-24T01:12:55;10.00;99.90
3281;DHT22;1652;51.318;6.202;2023-04-24T01:15:23;10.10;99.90
3281;DHT22;1652;51.318;6.202;2023-04-24T01:17:49;10.10;99.90
3281;DHT22;1652;51.318;6.202;2023-04-24T01:20:17;10.10;99.90
3281;DHT22;1652;51.318;6.202;2023-04-24T01:22:44;10.10;99.90
3281;DHT22;1652;51.318;6.202;2023-04-24T01:25:11;10.10;99.90
3281;DHT22;1652;51.318;6.202;2023-04-24T01:27:38;10.10;99.90
3281;DHT22;1652;51.318;6.202;2023-04-24T01:30:06;10.10;99.90
3281;DHT22;1652;51.318;6.202;2023-04-24T01:32:33;10.10;99.90
3281;DHT22;1652;51.318;6.202;2023-04-24T01:35:01;10.10;99.90
3281;DHT22;1652;51.318;6.202;2023-04-24T01:37:28;10.10;99.90
3281;DHT22;1652;51.318;6.202;2023-04-24T01:39:55;10.10;99.90
3281;DHT22;1652;51.318;6.202;2023-04-24T01:42:22;10.10;99.90
3281;DHT22;1652;51.318;6.202;2023-04-24T01:44:50;10.00;99.90
3281;DHT22;1652;51.318;6.202;2023-04-24T01:47:17;10.00;99.90
3281;DHT22;1652;51.318;6.202;2023-04-24T01:49:45;10.00;99.90
3281;DHT22;1652;51.318;6.202;2023-04-24T01:52:14;10.00;99.90
3281;DHT22;1652;51.318;6.202;2023-04-24T01:54:41;10.00;99.90
3281;DHT22;1652;51.318;6.202;2023-04-24T01:57:08;9.90;99.90
3281;DHT22;1652;51.318;6.202;2023-04-24T01:59:35;9.90;99.90
3281;DHT22;1652;51.318;6.202;2023-04-24T02:02:03;10.00;99.90
3281;DHT22;1652;51.318;6.202;2023-04-24T02:04:30;10.00;99.90
3281;DHT22;1652;51.318;6.202;2023-04-24T02:06:57;10.00;99.90
3281;DHT22;1652;51.318;6.202;2023-04-24T02:09:24;9.90;99.90
3281;DHT22;1652;51.318;6.202;2023-04-24T02:11:51;10.00;99.90
3281;DHT22;1652;51.318;6.202;2023-04-24T02:14:18;10.00;99.90
3281;DHT22;1652;51.318;6.202;2023-04-24T02:16:45;10.00;99.90
3281;DHT22;1652;51.318;6.202;2023-04-24T02:19:12;10.00;99.90
3281;DHT22;1652;51.318;6.202;2023-04-24T02:21:39;10.00;99.90
3281;DHT22;1652;51.318;6.202;2023-04-24T02:24:06;10.00;99.90
3281;DHT22;1652;51.318;6.202;2023-04-24T02:26:33;10.00;99.90
3281;DHT22;1652;51.318;6.202;2023-04-24T02:29:00;10.00;99.90
3281;DHT22;1652;51.318;6.202;2023-04-24T02:31:27;9.90;99.90
3281;DHT22;1652;51.318;6.202;2023-04-24T02:33:54;9.90;99.90
3281;DHT22;1652;51.318;6.202;2023-04-24T02:36:21;9.90;99.90
3281;DHT22;1652;51.318;6.202;2023-04-24T02:38:48;10.00;99.90
3281;DHT22;1652;51.318;6.202;2023-04-24T02:41:14;10.00;99.90
3281;DHT22;1652;51.318;6.202;2023-04-24T02:43:41;9.90;99.90
3281;DHT22;1652;51.318;6.202;2023-04-24T02:46:08;9.90;99.90
3281;DHT22;1652;51.318;6.202;2023-04-24T02:48:35;9.90;99.90
3281;DHT22;1652;51.318;6.202;2023-04-24T02:51:02;10.00;99.90
3281;DHT22;1652;51.318;6.202;2023-04-24T02:53:29;9.90;99.90
3281;DHT22;1652;51.318;6.202;2023-04-24T02:55:57;9.90;99.90
3281;DHT22;1652;51.318;6.202;2023-04-24T02:58:24;9.90;99.90
3281;DHT22;1652;51.318;6.202;2023-04-24T03:00:55;9.90;99.90
3281;DHT22;1652;51.318;6.202;2023-04-24T03:03:23;10.00;99.90
3281;DHT22;1652;51.318;6.202;2023-04-24T03:05:51;9.90;99.90
3281;DHT22;1652;51.318;6.202;2023-04-24T03:08:18;10.00;99.90
3281;DHT22;1652;51.318;6.202;2023-04-24T03:10:45;10.00;99.90
3281;DHT22;1652;51.318;6.202;2023-04-24T03:13:13;9.90;99.90
3281;DHT22;1652;51.318;6.202;2023-04-24T03:15:41;9.90;99.90
3281;DHT22;1652;51.318;6.202;2023-04-24T03:18:08;9.90;99.90
3281;DHT22;1652;51.318;6.202;2023-04-24T03:20:35;9.90;99.90
3281;DHT22;1652;51.318;6.202;2023-04-24T03:23:04;9.90;99.90
3281;DHT22;1652;51.318;6.202;2023-04-24T03:25:31;9.90;99.90
3281;DHT22;1652;51.318;6.202;2023-04-24T03:27:58;9.90;99.90
3281;DHT22;1652;51.318;6.202;2023-04-24T03:30:24;9.90;99.90
3281;DHT22;1652;51.318;6.202;2023-04-24T03:32:51;9.90;99.90
3281;DHT22;1652;51.318;6.202;2023-04-24T03:35:18;9.90;99.90
3281;DHT22;1652;51.318;6.202;2023-04-24T03:37:45;9.90;99.90
3281;DHT22;1652;51.318;6.202;2023-04-24T03:40:12;9.90;99.90
3281;DHT22;1652;51.318;6.202;2023-04-24T03:42:39;10.00;99.90
3281;DHT22;1652;51.318;6.202;2023-04-24T03:45:06;10.00;99.90
3281;DHT22;1652;51.318;6.202;2023-04-24T03:47:34;9.90;99.90
3281;DHT22;1652;51.318;6.202;2023-04-24T03:50:01;9.90;99.90
3281;DHT22;1652;51.318;6.202;2023-04-24T03:52:28;9.90;99.90
3281;DHT22;1652;51.318;6.202;2023-04-24T03:54:54;9.90;99.90
3281;DHT22;1652;51.318;6.202;2023-04-24T03:57:22;9.90;99.90
3281;DHT22;1652;51.318;6.202;2023-04-24T03:59:49;9.80;99.90
3281;DHT22;1652;51.318;6.202;2023-04-24T04:02:16;9.80;99.90
3281;DHT22;1652;51.318;6.202;2023-04-24T04:04:43;9.90;99.90
3281;DHT22;1652;51.318;6.202;2023-04-24T04:07:10;9.90;99.90
3281;DHT22;1652;51.318;6.202;2023-04-24T04:09:37;9.90;99.90
3281;DHT22;1652;51.318;6.202;2023-04-24T04:12:04;9.80;99.90
3281;DHT22;1652;51.318;6.202;2023-04-24T04:14:31;9.80;99.90
3281;DHT22;1652;51.318;6.202;2023-04-24T04:16:58;9.80;99.90
3281;DHT22;1652;51.318;6.202;2023-04-24T04:19:25;9.80;99.90
3281;DHT22;1652;51.318;6.202;2023-04-24T04:21:52;9.80;99.90
3281;DHT22;1652;51.318;6.202;2023-04-24T04:24:20;9.80;99.90
3281;DHT22;1652;51.318;6.202;2023-04-24T04:26:51;9.80;99.90
3281;DHT22;1652;51.318;6.202;2023-04-24T04:29:18;9.70;99.90
3281;DHT22;1652;51.318;6.202;2023-04-24T04:31:45;9.70;99.90
3281;DHT22;1652;51.318;6.202;2023-04-24T04:34:12;9.70;99.90
3281;DHT22;1652;51.318;6.202;2023-04-24T04:36:41;9.70;99.90
3281;DHT22;1652;51.318;6.202;2023-04-24T04:39:08;9.60;99.90
3281;DHT22;1652;51.318;6.202;2023-04-24T04:41:35;9.70;99.90
3281;DHT22;1652;51.318;6.202;2023-04-24T04:44:02;9.60;99.90
3281;DHT22;1652;51.318;6.202;2023-04-24T04:46:31;9.60;99.90
3281;DHT22;1652;51.318;6.202;2023-04-24T04:49:01;9.50;99.90
3281;DHT22;1652;51.318;6.202;2023-04-24T04:51:29;9.50;99.90
3281;DHT22;1652;51.318;6.202;2023-04-24T04:53:55;9.40;99.90
3281;DHT22;1652;51.318;6.202;2023-04-24T04:56:22;9.40;99.90
3281;DHT22;1652;51.318;6.202;2023-04-24T04:58:49;9.40;99.90
3281;DHT22;1652;51.318;6.202;2023-04-24T05:01:16;9.40;99.90
3281;DHT22;1652;51.318;6.202;2023-04-24T05:03:44;9.40;99.90
3281;DHT22;1652;51.318;6.202;2023-04-24T05:06:11;9.40;99.90
3281;DHT22;1652;51.318;6.202;2023-04-24T05:08:38;9.40;99.90
3281;DHT22;1652;51.318;6.202;2023-04-24T05:11:05;9.50;99.90
3281;DHT22;1652;51.318;6.202;2023-04-24T05:13:32;9.50;99.90
3281;DHT22;1652;51.318;6.202;2023-04-24T05:16:07;9.50;99.90
3281;DHT22;1652;51.318;6.202;2023-04-24T05:18:34;9.50;99.90
3281;DHT22;1652;51.318;6.202;2023-04-24T05:21:01;9.50;99.90
3281;DHT22;1652;51.318;6.202;2023-04-24T05:23:28;9.50;99.90
3281;DHT22;1652;51.318;6.202;2023-04-24T05:25:55;9.50;99.90
3281;DHT22;1652;51.318;6.202;2023-04-24T05:28:22;9.50;99.90
3281;DHT22;1652;51.318;6.202;2023-04-24T05:30:49;9.40;99.90
3281;DHT22;1652;51.318;6.202;2023-04-24T05:33:16;9.30;99.90
3281;DHT22;1652;51.318;6.202;2023-04-24T05:35:43;9.30;99.90
3281;DHT22;1652;51.318;6.202;2023-04-24T05:38:13;9.30;99.90
3281;DHT22;1652;51.318;6.202;2023-04-24T05:40:40;9.30;99.90
3281;DHT22;1652;51.318;6.202;2023-04-24T05:43:08;9.20;99.90
3281;DHT22;1652;51.318;6.202;2023-04-24T05:45:34;9.10;99.90
3281;DHT22;1652;51.318;6.202;2023-04-24T05:48:03;9.10;99.90
3281;DHT22;1652;51.318;6.202;2023-04-24T05:50:30;9.00;99.90
3281;DHT22;1652;51.318;6.202;2023-04-24T05:52:57;8.90;99.90
3281;DHT22;1652;51.318;6.202;2023-04-24T05:55:28;8.90;99.90
3281;DHT22;1652;51.318;6.202;2023-04-24T05:57:55;8.80;99.90
3281;DHT22;1652;51.318;6.202;2023-04-24T06:00:24;8.80;99.90
3281;DHT22;1652;51.318;6.202;2023-04-24T06:02:51;8.70;99.90
3281;DHT22;1652;51.318;6.202;2023-04-24T06:05:20;8.80;99.90
3281;DHT22;1652;51.318;6.202;2023-04-24T06:07:47;8.80;99.90
3281;DHT22;1652;51.318;6.202;2023-04-24T06:10:14;8.80;99.90
3281;DHT22;1652;51.318;6.202;2023-04-24T06:12:42;8.80;99.90
3281;DHT22;1652;51.318;6.202;2023-04-24T06:17:40;8.80;99.90
3281;DHT22;1652;51.318;6.202;2023-04-24T06:20:07;8.90;99.90
3281;DHT22;1652;51.318;6.202;2023-04-24T06:22:34;8.90;99.90
3281;DHT22;1652;51.318;6.202;2023-04-24T06:25:02;8.90;99.90
3281;DHT22;1652;51.318;6.202;2023-04-24T06:27:29;8.80;99.90
3281;DHT22;1652;51.318;6.202;2023-04-24T06:29:56;8.80;99.90
3281;DHT22;1652;51.318;6.202;2023-04-24T06:32:23;8.90;99.90
3281;DHT22;1652;51.318;6.202;2023-04-24T06:34:51;8.80;99.90
3281;DHT22;1652;51.318;6.202;2023-04-24T06:37:20;8.90;99.90
3281;DHT22;1652;51.318;6.202;2023-04-24T06:39:47;8.90;99.90
3281;DHT22;1652;51.318;6.202;2023-04-24T06:42:14;8.80;99.90
3281;DHT22;1652;51.318;6.202;2023-04-24T06:44:41;8.80;99.90
3281;DHT22;1652;51.318;6.202;2023-04-24T06:47:11;8.60;99.90
3281;DHT22;1652;51.318;6.202;2023-04-24T06:49:40;8.60;99.90
3281;DHT22;1652;51.318;6.202;2023-04-24T06:52:07;8.50;99.90
3281;DHT22;1652;51.318;6.202;2023-04-24T06:54:34;8.50;99.90
3281;DHT22;1652;51.318;6.202;2023-04-24T06:57:01;8.40;99.90
3281;DHT22;1652;51.318;6.202;2023-04-24T06:59:30;8.30;99.90
3281;DHT22;1652;51.318;6.202;2023-04-24T07:01:57;8.20;99.90
3281;DHT22;1652;51.318;6.202;2023-04-24T07:04:24;8.10;99.90
3281;DHT22;1652;51.318;6.202;2023-04-24T07:06:52;8.10;99.90
3281;DHT22;1652;51.318;6.202;2023-04-24T07:09:23;8.00;99.90
3281;DHT22;1652;51.318;6.202;2023-04-24T07:11:52;8.00;99.90
3281;DHT22;1652;51.318;6.202;2023-04-24T07:14:20;8.00;99.90
3281;DHT22;1652;51.318;6.202;2023-04-24T07:16:47;8.00;99.90
3281;DHT22;1652;51.318;6.202;2023-04-24T07:19:14;8.10;99.90
3281;DHT22;1652;51.318;6.202;2023-04-24T07:21:41;8.10;99.90
3281;DHT22;1652;51.318;6.202;2023-04-24T07:24:08;8.10;99.90
3281;DHT22;1652;51.318;6.202;2023-04-24T07:26:39;8.10;99.90
3281;DHT22;1652;51.318;6.202;2023-04-24T07:29:07;8.20;99.90
3281;DHT22;1652;51.318;6.202;2023-04-24T07:31:34;8.20;99.90
3281;DHT22;1652;51.318;6.202;2023-04-24T07:34:01;8.20;99.90
3281;DHT22;1652;51.318;6.202;2023-04-24T07:36:28;8.20;99.90
3281;DHT22;1652;51.318;6.202;2023-04-24T07:38:55;8.30;99.90
3281;DHT22;1652;51.318;6.202;2023-04-24T07:41:25;8.40;99.90
3281;DHT22;1652;51.318;6.202;2023-04-24T07:43:54;8.50;99.90
3281;DHT22;1652;51.318;6.202;2023-04-24T07:46:21;8.60;99.90
3281;DHT22;1652;51.318;6.202;2023-04-24T07:48:48;8.60;99.90
3281;DHT22;1652;51.318;6.202;2023-04-24T07:51:27;8.80;99.90
3281;DHT22;1652;51.318;6.202;2023-04-24T07:53:54;8.80;99.90
3281;DHT22;1652;51.318;6.202;2023-04-24T07:56:21;8.80;99.90
3281;DHT22;1652;51.318;6.202;2023-04-24T07:58:48;8.60;99.90
3281;DHT22;1652;51.318;6.202;2023-04-24T08:01:15;8.70;99.90
3281;DHT22;1652;51.318;6.202;2023-04-24T08:03:42;8.70;99.90
3281;DHT22;1652;51.318;6.202;2023-04-24T08:06:09;8.70;99.90
3281;DHT22;1652;51.318;6.202;2023-04-24T08:08:36;8.60;99.90
3281;DHT22;1652;51.318;6.202;2023-04-24T08:11:03;8.60;99.90
3281;DHT22;1652;51.318;6.202;2023-04-24T08:13:30;8.60;99.90
3281;DHT22;1652;51.318;6.202;2023-04-24T08:15:57;8.70;99.90
3281;DHT22;1652;51.318;6.202;2023-04-24T08:18:24;8.80;99.90
3281;DHT22;1652;51.318;6.202;2023-04-24T08:20:51;8.80;99.90
3281;DHT22;1652;51.318;6.202;2023-04-24T08:23:18;8.80;99.90
3281;DHT22;1652;51.318;6.202;2023-04-24T08:25:45;8.80;99.90
3281;DHT22;1652;51.318;6.202;2023-04-24T08:28:12;8.70;99.90
3281;DHT22;1652;51.318;6.202;2023-04-24T08:30:42;8.70;99.90
3281;DHT22;1652;51.318;6.202;2023-04-24T08:33:09;8.70;99.90
3281;DHT22;1652;51.318;6.202;2023-04-24T08:35:36;8.60;99.90
3281;DHT22;1652;51.318;6.202;2023-04-24T08:38:03;8.70;99.90
3281;DHT22;1652;51.318;6.202;2023-04-24T08:40:34;8.70;99.90
3281;DHT22;1652;51.318;6.202;2023-04-24T08:43:01;8.80;99.90
3281;DHT22;1652;51.318;6.202;2023-04-24T08:45:28;8.80;99.90
3281;DHT22;1652;51.318;6.202;2023-04-24T08:47:55;8.80;99.90
3281;DHT22;1652;51.318;6.202;2023-04-24T08:50:22;8.80;99.90
3281;DHT22;1652;51.318;6.202;2023-04-24T08:52:50;8.60;99.90
3281;DHT22;1652;51.318;6.202;2023-04-24T08:55:20;8.60;99.90
3281;DHT22;1652;51.318;6.202;2023-04-24T08:57:52;8.60;99.90
3281;DHT22;1652;51.318;6.202;2023-04-24T09:00:20;8.60;99.90
3281;DHT22;1652;51.318;6.202;2023-04-24T09:02:49;8.70;99.90
3281;DHT22;1652;51.318;6.202;2023-04-24T09:05:17;8.80;99.90
3281;DHT22;1652;51.318;6.202;2023-04-24T09:07:52;8.80;99.90
3281;DHT22;1652;51.318;6.202;2023-04-24T09:10:23;8.90;99.90
3281;DHT22;1652;51.318;6.202;2023-04-24T09:12:52;9.00;99.90
3281;DHT22;1652;51.318;6.202;2023-04-24T09:15:19;9.00;99.90
3281;DHT22;1652;51.318;6.202;2023-04-24T09:17:47;9.00;99.90
3281;DHT22;1652;51.318;6.202;2023-04-24T09:20:14;9.10;99.90
3281;DHT22;1652;51.318;6.202;2023-04-24T09:22:42;9.10;99.90
3281;DHT22;1652;51.318;6.202;2023-04-24T09:25:09;9.20;99.90
3281;DHT22;1652;51.318;6.202;2023-04-24T09:27:43;9.20;99.90
3281;DHT22;1652;51.318;6.202;2023-04-24T09:30:11;9.30;99.90
3281;DHT22;1652;51.318;6.202;2023-04-24T09:32:38;9.40;99.90
3281;DHT22;1652;51.318;6.202;2023-04-24T09:35:07;9.60;99.90
3281;DHT22;1652;51.318;6.202;2023-04-24T09:37:42;9.60;99.90
3281;DHT22;1652;51.318;6.202;2023-04-24T09:40:20;9.70;99.90
3281;DHT22;1652;51.318;6.202;2023-04-24T09:42:55;9.70;99.90
3281;DHT22;1652;51.318;6.202;2023-04-24T09:45:28;9.60;99.90
3281;DHT22;1652;51.318;6.202;2023-04-24T09:47:55;9.50;99.90
3281;DHT22;1652;51.318;6.202;2023-04-24T09:50:23;9.60;99.90
3281;DHT22;1652;51.318;6.202;2023-04-24T09:53:02;9.80;99.90
3281;DHT22;1652;51.318;6.202;2023-04-24T09:55:31;10.00;99.90
3281;DHT22;1652;51.318;6.202;2023-04-24T09:57:59;10.10;99.90
3281;DHT22;1652;51.318;6.202;2023-04-24T10:00:31;9.90;99.90
3281;DHT22;1652;51.318;6.202;2023-04-24T10:03:04;9.80;99.90
3281;DHT22;1652;51.318;6.202;2023-04-24T10:05:33;9.60;99.90
3281;DHT22;1652;51.318;6.202;2023-04-24T10:10:33;9.50;99.90
3281;DHT22;1652;51.318;6.202;2023-04-24T10:13:00;9.40;99.90
3281;DHT22;1652;51.318;6.202;2023-04-24T10:15:28;9.30;99.90
3281;DHT22;1652;51.318;6.202;2023-04-24T10:17:58;9.40;99.90
3281;DHT22;1652;51.318;6.202;2023-04-24T10:20:27;9.50;99.90
3281;DHT22;1652;51.318;6.202;2023-04-24T10:22:59;9.60;99.90
3281;DHT22;1652;51.318;6.202;2023-04-24T10:25:31;9.90;99.90
3281;DHT22;1652;51.318;6.202;2023-04-24T10:27:59;10.10;99.90
3281;DHT22;1652;51.318;6.202;2023-04-24T10:30:29;10.50;99.90
3281;DHT22;1652;51.318;6.202;2023-04-24T10:32:56;10.90;99.90
3281;DHT22;1652;51.318;6.202;2023-04-24T10:35:23;11.10;99.90
3281;DHT22;1652;51.318;6.202;2023-04-24T10:38:00;11.00;99.90
3281;DHT22;1652;51.318;6.202;2023-04-24T10:40:34;10.60;99.90
3281;DHT22;1652;51.318;6.202;2023-04-24T10:43:03;10.30;99.90
3281;DHT22;1652;51.318;6.202;2023-04-24T10:45:32;10.00;99.90
3281;DHT22;1652;51.318;6.202;2023-04-24T10:48:01;9.90;99.90
3281;DHT22;1652;51.318;6.202;2023-04-24T10:50:47;9.80;99.90
3281;DHT22;1652;51.318;6.202;2023-04-24T10:53:16;9.70;99.90
3281;DHT22;1652;51.318;6.202;2023-04-24T10:58:21;9.90;99.90
3281;DHT22;1652;51.318;6.202;2023-04-24T11:00:59;10.10;99.90
3281;DHT22;1652;51.318;6.202;2023-04-24T11:03:27;10.70;99.90
3281;DHT22;1652;51.318;6.202;2023-04-24T11:06:09;11.10;99.90
3281;DHT22;1652;51.318;6.202;2023-04-24T11:08:43;11.40;99.90
3281;DHT22;1652;51.318;6.202;2023-04-24T11:11:15;11.50;99.90
3281;DHT22;1652;51.318;6.202;2023-04-24T11:16:27;11.20;99.90
3281;DHT22;1652;51.318;6.202;2023-04-24T11:19:09;10.90;99.90
3281;DHT22;1652;51.318;6.202;2023-04-24T11:21:40;10.70;99.90
3281;DHT22;1652;51.318;6.202;2023-04-24T11:24:30;10.50;99.90
3281;DHT22;1652;51.318;6.202;2023-04-24T11:29:47;10.70;99.90
3281;DHT22;1652;51.318;6.202;2023-04-24T11:34:49;11.30;99.90
3281;DHT22;1652;51.318;6.202;2023-04-24T11:37:17;11.10;99.90
3281;DHT22;1652;51.318;6.202;2023-04-24T11:39:44;11.10;99.90
3281;DHT22;1652;51.318;6.202;2023-04-24T11:42:14;11.10;99.90
3281;DHT22;1652;51.318;6.202;2023-04-24T11:44:42;11.00;99.90
3281;DHT22;1652;51.318;6.202;2023-04-24T12:03:20;11.80;99.90
3281;DHT22;1652;51.318;6.202;2023-04-24T12:05:47;11.90;98.00
3281;DHT22;1652;51.318;6.202;2023-04-24T12:08:28;11.90;90.90
3281;DHT22;1652;51.318;6.202;2023-04-24T12:10:55;12.00;99.90
3281;DHT22;1652;51.318;6.202;2023-04-24T12:13:22;12.20;96.00
3281;DHT22;1652;51.318;6.202;2023-04-24T12:15:51;12.30;72.50
3281;DHT22;1652;51.318;6.202;2023-04-24T12:18:18;12.30;91.40
3281;DHT22;1652;51.318;6.202;2023-04-24T12:20:48;12.30;57.10
3281;DHT22;1652;51.318;6.202;2023-04-24T12:23:15;12.30;68.40
3281;DHT22;1652;51.318;6.202;2023-04-24T12:25:42;12.40;86.10
3281;DHT22;1652;51.318;6.202;2023-04-24T12:28:11;12.40;62.70
3281;DHT22;1652;51.318;6.202;2023-04-24T12:30:47;12.50;67.40
3281;DHT22;1652;51.318;6.202;2023-04-24T12:33:22;12.50;48.50
3281;DHT22;1652;51.318;6.202;2023-04-24T12:35:52;12.60;60.10
3281;DHT22;1652;51.318;6.202;2023-04-24T12:38:23;12.50;32.00
3281;DHT22;1652;51.318;6.202;2023-04-24T12:41:06;12.50;29.20
3281;DHT22;1652;51.318;6.202;2023-04-24T12:43:33;12.20;25.10
3281;DHT22;1652;51.318;6.202;2023-04-24T12:46:00;12.10;33.00
3281;DHT22;1652;51.318;6.202;2023-04-24T12:48:28;12.20;41.00
3281;DHT22;1652;51.318;6.202;2023-04-24T12:50:57;12.40;38.20
3281;DHT22;1652;51.318;6.202;2023-04-24T12:53:27;12.60;35.40
3281;DHT22;1652;51.318;6.202;2023-04-24T12:55:56;12.80;28.40
3281;DHT22;1652;51.318;6.202;2023-04-24T12:58:23;12.90;10.70
3281;DHT22;1652;51.318;6.202;2023-04-24T13:00:50;13.10;26.90
3281;DHT22;1652;51.318;6.202;2023-04-24T13:03:18;13.10;13.30
3281;DHT22;1652;51.318;6.202;2023-04-24T13:05:45;13.10;20.50
3281;DHT22;1652;51.318;6.202;2023-04-24T13:08:12;13.30;15.80
3281;DHT22;1652;51.318;6.202;2023-04-24T13:10:39;13.10;1.00
3281;DHT22;1652;51.318;6.202;2023-04-24T13:13:07;13.10;4.50
3281;DHT22;1652;51.318;6.202;2023-04-24T13:15:35;13.20;17.80
3281;DHT22;1652;51.318;6.202;2023-04-24T13:18:02;13.10;3.30
3281;DHT22;1652;51.318;6.202;2023-04-24T13:20:29;13.20;17.00
3281;DHT22;1652;51.318;6.202;2023-04-24T13:22:56;13.30;1.00
3281;DHT22;1652;51.318;6.202;2023-04-24T13:25:23;13.20;1.00
3281;DHT22;1652;51.318;6.202;2023-04-24T13:27:51;13.10;1.00
3281;DHT22;1652;51.318;6.202;2023-04-24T13:30:18;13.00;14.00
3281;DHT22;1652;51.318;6.202;2023-04-24T13:32:45;13.00;3.10
3281;DHT22;1652;51.318;6.202;2023-04-24T13:35:12;12.90;24.90
3281;DHT22;1652;51.318;6.202;2023-04-24T13:37:39;13.00;15.90
3281;DHT22;1652;51.318;6.202;2023-04-24T13:40:06;12.90;1.00
3281;DHT22;1652;51.318;6.202;2023-04-24T13:42:33;12.70;1.00
3281;DHT22;1652;51.318;6.202;2023-04-24T13:45:01;12.50;10.00
3281;DHT22;1652;51.318;6.202;2023-04-24T13:47:43;12.60;10.30
3281;DHT22;1652;51.318;6.202;2023-04-24T13:50:10;12.70;18.10
3281;DHT22;1652;51.318;6.202;2023-04-24T13:52:37;12.90;8.20
3281;DHT22;1652;51.318;6.202;2023-04-24T13:55:04;13.10;1.00
3281;DHT22;1652;51.318;6.202;2023-04-24T13:57:31;13.00;1.00
3281;DHT22;1652;51.318;6.202;2023-04-24T13:59:58;13.30;1.00
3281;DHT22;1652;51.318;6.202;2023-04-24T14:05:09;13.70;1.00
3281;DHT22;1652;51.318;6.202;2023-04-24T14:07:37;13.60;1.00
3281;DHT22;1652;51.318;6.202;2023-04-24T14:10:05;13.50;1.00
3281;DHT22;1652;51.318;6.202;2023-04-24T14:12:32;13.50;1.00
3281;DHT22;1652;51.318;6.202;2023-04-24T14:14:59;13.40;1.00
3281;DHT22;1652;51.318;6.202;2023-04-24T14:17:26;13.30;1.00
3281;DHT22;1652;51.318;6.202;2023-04-24T14:19:53;13.30;1.00
3281;DHT22;1652;51.318;6.202;2023-04-24T14:22:23;13.30;1.00
3281;DHT22;1652;51.318;6.202;2023-04-24T14:24:50;13.30;1.00
3281;DHT22;1652;51.318;6.202;2023-04-24T14:27:17;13.30;1.00
3281;DHT22;1652;51.318;6.202;2023-04-24T14:29:43;13.20;1.00
3281;DHT22;1652;51.318;6.202;2023-04-24T14:32:11;13.30;1.00
3281;DHT22;1652;51.318;6.202;2023-04-24T14:34:41;13.40;3.00
3281;DHT22;1652;51.318;6.202;2023-04-24T14:37:08;13.40;1.00
3281;DHT22;1652;51.318;6.202;2023-04-24T14:39:35;13.30;1.00
3281;DHT22;1652;51.318;6.202;2023-04-24T14:42:02;13.30;1.00
3281;DHT22;1652;51.318;6.202;2023-04-24T14:44:29;13.30;1.00
3281;DHT22;1652;51.318;6.202;2023-04-24T14:46:56;13.30;1.00
3281;DHT22;1652;51.318;6.202;2023-04-24T14:49:23;13.20;1.00
3281;DHT22;1652;51.318;6.202;2023-04-24T14:51:50;13.30;1.00
3281;DHT22;1652;51.318;6.202;2023-04-24T14:54:17;13.20;3.60
3281;DHT22;1652;51.318;6.202;2023-04-24T14:56:44;13.20;1.00
3281;DHT22;1652;51.318;6.202;2023-04-24T14:59:11;13.20;1.00
3281;DHT22;1652;51.318;6.202;2023-04-24T15:01:37;13.10;1.00
3281;DHT22;1652;51.318;6.202;2023-04-24T15:04:04;13.20;1.00
3281;DHT22;1652;51.318;6.202;2023-04-24T15:06:32;13.30;6.40
3281;DHT22;1652;51.318;6.202;2023-04-24T15:08:59;13.20;1.00
3281;DHT22;1652;51.318;6.202;2023-04-24T15:11:26;13.10;1.00
3281;DHT22;1652;51.318;6.202;2023-04-24T15:13:54;12.90;1.00
3281;DHT22;1652;51.318;6.202;2023-04-24T15:16:20;12.80;1.00
3281;DHT22;1652;51.318;6.202;2023-04-24T15:18:47;12.70;1.00
3281;DHT22;1652;51.318;6.202;2023-04-24T15:21:14;12.70;1.00
3281;DHT22;1652;51.318;6.202;2023-04-24T15:23:41;12.80;1.00
3281;DHT22;1652;51.318;6.202;2023-04-24T15:26:08;12.80;1.00
3281;DHT22;1652;51.318;6.202;2023-04-24T15:28:35;12.80;20.10
3281;DHT22;1652;51.318;6.202;2023-04-24T15:31:02;12.60;27.20
3281;DHT22;1652;51.318;6.202;2023-04-24T15:33:29;12.50;19.40
3281;DHT22;1652;51.318;6.202;2023-04-24T15:35:56;12.40;27.90
3281;DHT22;1652;51.318;6.202;2023-04-24T15:38:23;12.50;28.30
3281;DHT22;1652;51.318;6.202;2023-04-24T15:40:49;12.60;34.80
3281;DHT22;1652;51.318;6.202;2023-04-24T15:43:16;12.60;17.90
3281;DHT22;1652;51.318;6.202;2023-04-24T15:45:43;12.50;30.70
3281;DHT22;1652;51.318;6.202;2023-04-24T15:48:10;12.50;23.40
3281;DHT22;1652;51.318;6.202;2023-04-24T15:50:37;12.40;25.00
3281;DHT22;1652;51.318;6.202;2023-04-24T15:53:05;12.20;24.80
3281;DHT22;1652;51.318;6.202;2023-04-24T15:55:32;11.90;27.70
3281;DHT22;1652;51.318;6.202;2023-04-24T15:58:00;11.60;38.60
3281;DHT22;1652;51.318;6.202;2023-04-24T16:00:27;11.50;33.30
3281;DHT22;1652;51.318;6.202;2023-04-24T16:03:00;11.30;36.20
3281;DHT22;1652;51.318;6.202;2023-04-24T16:05:28;11.30;54.50
3281;DHT22;1652;51.318;6.202;2023-04-24T16:07:55;11.20;40.20
3281;DHT22;1652;51.318;6.202;2023-04-24T16:10:22;11.10;40.60
3281;DHT22;1652;51.318;6.202;2023-04-24T16:12:49;11.10;52.60
3281;DHT22;1652;51.318;6.202;2023-04-24T16:15:17;11.20;58.40
3281;DHT22;1652;51.318;6.202;2023-04-24T16:17:44;11.10;54.10
3281;DHT22;1652;51.318;6.202;2023-04-24T16:20:13;11.10;54.20
3281;DHT22;1652;51.318;6.202;2023-04-24T16:22:40;11.10;63.40
3281;DHT22;1652;51.318;6.202;2023-04-24T16:25:08;11.00;48.90
3281;DHT22;1652;51.318;6.202;2023-04-24T16:27:35;11.00;41.70
3281;DHT22;1652;51.318;6.202;2023-04-24T16:30:03;11.10;31.10
3281;DHT22;1652;51.318;6.202;2023-04-24T16:32:30;11.20;19.90
3281;DHT22;1652;51.318;6.202;2023-04-24T16:34:57;11.30;39.10
3281;DHT22;1652;51.318;6.202;2023-04-24T16:37:24;11.30;21.00
3281;DHT22;1652;51.318;6.202;2023-04-24T16:39:52;11.40;10.50
3281;DHT22;1652;51.318;6.202;2023-04-24T16:42:21;11.40;15.90
3281;DHT22;1652;51.318;6.202;2023-04-24T16:44:48;11.30;1.00
3281;DHT22;1652;51.318;6.202;2023-04-24T16:47:14;11.30;18.50
3281;DHT22;1652;51.318;6.202;2023-04-24T16:49:41;11.30;4.10
3281;DHT22;1652;51.318;6.202;2023-04-24T16:52:10;11.30;1.00